Time;durP1;ratioP1;P1;durP2;ratioP2;P2;SDS_P1;SDS_P2;PMS_P1;PMS_P2;Temp;Humidity;BMP_temperature;BMP_pressure;BME280_temperature;BME280_humidity;BME280_pressure;Samples;Min_cycle;Max_cycle;Signal;HPM_P1;HPM_P2
2023/08/18 00:01:16;;;;;;;2.77;2.50;;;;;;;20.45;100.00;96546.78;4972600;28;105127;-77
2023/08/18 00:03:43;;;;;;;2.93;2.50;;;;;;;20.40;100.00;96539.59;4990320;28;103412;-77
2023/08/18 00:06:10;;;;;;;2.93;2.43;;;;;;;20.38;100.00;96536.41;4976234;28;102038;-77
2023/08/18 00:08:39;;;;;;;2.70;2.50;;;;;;;20.49;100.00;96523.44;4972036;28;105583;-77
2023/08/18 00:11:08;;;;;;;2.20;2.00;;;;;;;20.21;100.00;96532.81;4972586;28;102019;-76
2023/08/18 00:13:35;;;;;;;3.00;2.13;;;;;;;19.91;100.00;96523.50;4972845;28;104122;-75
2023/08/18 00:16:02;;;;;;;4.70;2.37;;;;;;;19.88;100.00;96526.00;4971920;28;105651;-75
2023/08/18 00:18:29;;;;;;;2.60;2.40;;;;;;;19.99;100.00;96521.97;4990778;28;101829;-76
2023/08/18 00:20:56;;;;;;;2.87;2.30;;;;;;;19.62;100.00;96525.00;4990474;28;102821;-75
2023/08/18 00:23:24;;;;;;;2.57;2.37;;;;;;;19.65;100.00;96510.88;4972313;28;105046;-76
2023/08/18 00:25:52;;;;;;;5.33;2.80;;;;;;;19.64;100.00;96509.28;4972615;28;102205;-77
2023/08/18 00:28:19;;;;;;;4.40;2.97;;;;;;;19.79;100.00;96509.72;4975051;28;104911;-77
2023/08/18 00:30:46;;;;;;;3.43;3.10;;;;;;;19.80;100.00;96513.25;4972404;28;102011;-77
2023/08/18 00:33:13;;;;;;;4.17;2.60;;;;;;;19.59;100.00;96521.00;4972463;28;105040;-77
2023/08/18 00:35:40;;;;;;;3.30;2.80;;;;;;;19.52;100.00;96514.41;4971778;28;105718;-77
2023/08/18 00:38:07;;;;;;;3.40;2.93;;;;;;;19.77;100.00;96511.13;4972461;28;102025;-77
2023/08/18 00:40:34;;;;;;;2.90;2.70;;;;;;;19.73;100.00;96507.47;4972295;28;105135;-77
2023/08/18 00:43:02;;;;;;;3.07;2.73;;;;;;;19.62;100.00;96495.31;4971555;28;105537;-77
2023/08/18 00:45:29;;;;;;;4.73;2.77;;;;;;;19.69;100.00;96492.97;4989116;28;101812;-77
2023/08/18 00:47:57;;;;;;;3.47;2.63;;;;;;;19.55;100.00;96487.63;4972115;28;105328;-77
2023/08/18 00:50:26;;;;;;;4.10;2.70;;;;;;;19.40;100.00;96490.66;4975280;28;105716;-78
2023/08/18 00:52:58;;;;;;;3.93;2.90;;;;;;;19.49;100.00;96483.47;4971734;28;105313;-78
2023/08/18 00:55:27;;;;;;;3.10;2.63;;;;;;;19.49;100.00;96479.94;4971418;28;105553;-78
2023/08/18 00:57:55;;;;;;;2.73;2.53;;;;;;;19.44;100.00;96472.78;4972418;28;102091;-78
2023/08/18 01:00:24;;;;;;;3.97;2.80;;;;;;;19.47;100.00;96471.38;4971862;28;105501;-76
2023/08/18 01:02:52;;;;;;;2.67;2.20;;;;;;;19.43;100.00;96471.19;4989143;28;102770;-76
2023/08/18 01:05:19;;;;;;;2.80;2.60;;;;;;;19.51;100.00;96466.97;4971330;28;102133;-76
2023/08/18 01:07:46;;;;;;;2.63;2.40;;;;;;;19.33;100.00;96457.94;4971774;28;105427;-76
2023/08/18 01:10:13;;;;;;;3.37;2.70;;;;;;;19.44;100.00;96462.00;4971074;28;105661;-76
2023/08/18 01:12:47;;;;;;;4.03;2.60;;;;;;;19.52;100.00;96463.94;4991943;28;101928;-77
2023/08/18 01:15:17;;;;;;;3.77;2.50;;;;;;;19.38;100.00;96462.41;4987883;28;105041;-74
2023/08/18 01:17:50;;;;;;;2.93;2.43;;;;;;;19.58;100.00;96470.84;4972070;28;101919;-74
2023/08/18 01:20:18;;;;;;;5.50;2.50;;;;;;;19.67;100.00;96466.31;4971857;28;105715;-74
2023/08/18 01:22:46;;;;;;;2.70;2.50;;;;;;;19.65;100.00;96462.31;4971057;28;105644;-74
2023/08/18 01:25:15;;;;;;;3.17;2.67;;;;;;;19.71;100.00;96453.81;4971535;28;102007;-74
2023/08/18 01:27:42;;;;;;;3.60;2.63;;;;;;;19.75;100.00;96457.50;4971718;28;105220;-74
2023/08/18 01:30:11;;;;;;;2.67;2.47;;;;;;;19.70;100.00;96454.09;4989087;28;102779;-74
2023/08/18 01:32:51;;;;;;;3.20;2.50;;;;;;;19.63;100.00;96451.03;4971483;28;102264;-74
2023/08/18 01:35:20;;;;;;;2.73;2.50;;;;;;;19.49;100.00;96459.19;4990845;28;105503;-74
2023/08/18 01:37:47;;;;;;;4.03;2.60;;;;;;;19.32;100.00;96452.81;4971623;28;102217;-74
2023/08/18 01:40:17;;;;;;;3.53;2.33;;;;;;;19.32;100.00;96458.22;4971787;28;105321;-74
2023/08/18 01:42:45;;;;;;;3.70;2.83;;;;;;;19.36;100.00;96459.22;4988565;28;102900;-74
2023/08/18 01:45:14;;;;;;;4.43;3.00;;;;;;;19.08;100.00;96447.66;4987846;28;101962;-74
2023/08/18 01:47:42;;;;;;;4.30;2.40;;;;;;;19.01;100.00;96438.41;4971314;28;105744;-75
2023/08/18 01:50:10;;;;;;;3.30;2.70;;;;;;;18.68;100.00;96429.63;4970807;28;105828;-76
2023/08/18 01:52:37;;;;;;;4.60;2.90;;;;;;;19.01;100.00;96443.78;4971723;28;101809;-74
2023/08/18 01:55:04;;;;;;;5.10;2.87;;;;;;;18.98;100.00;96439.00;4974042;28;105527;-74
2023/08/18 01:57:34;;;;;;;3.27;2.47;;;;;;;18.95;100.00;96429.63;4971245;28;101889;-77
2023/08/18 02:00:01;;;;;;;3.23;2.70;;;;;;;19.00;100.00;96426.00;4971646;28;105000;-76
2023/08/18 02:02:28;;;;;;;2.73;2.53;;;;;;;18.79;100.00;96416.75;4970434;28;105539;-76
2023/08/18 02:04:56;;;;;;;3.37;3.07;;;;;;;19.08;100.00;96422.59;4971350;28;102064;-76
2023/08/18 02:07:23;;;;;;;4.73;3.37;;;;;;;19.12;100.00;96419.00;4971095;28;105949;-76
2023/08/18 02:09:50;;;;;;;3.13;2.83;;;;;;;19.12;100.00;96408.22;4970859;28;105823;-76
2023/08/18 02:12:17;;;;;;;3.23;2.87;;;;;;;18.93;100.00;96398.66;4971376;28;101999;-75
2023/08/18 02:14:45;;;;;;;3.20;2.90;;;;;;;18.93;100.00;96399.47;4971083;28;104374;-75
2023/08/18 02:17:13;;;;;;;3.13;2.90;;;;;;;18.79;100.00;96401.38;4975556;28;105085;-75
2023/08/18 02:19:40;;;;;;;3.47;3.13;;;;;;;18.78;100.00;96396.28;4974695;28;105277;-74
2023/08/18 02:22:07;;;;;;;4.70;2.87;;;;;;;18.55;100.00;96390.03;4973666;28;105198;-74
2023/08/18 02:24:34;;;;;;;3.57;2.80;;;;;;;18.42;100.00;96392.75;4974235;28;101899;-74
2023/08/18 02:27:01;;;;;;;4.03;2.63;;;;;;;18.56;100.00;96407.78;4992606;28;102665;-75
2023/08/18 02:29:28;;;;;;;3.43;2.80;;;;;;;18.52;100.00;96397.94;4973806;28;105609;-75
2023/08/18 02:31:56;;;;;;;4.17;2.87;;;;;;;18.53;100.00;96402.22;4990762;28;101898;-74
2023/08/18 02:34:24;;;;;;;3.40;2.90;;;;;;;18.62;100.00;96414.69;4974066;28;106061;-75
2023/08/18 02:36:53;;;;;;;3.63;3.23;;;;;;;18.43;100.00;96399.72;4973757;28;105206;-75
2023/08/18 02:39:20;;;;;;;3.70;3.27;;;;;;;18.55;100.00;96398.13;4977643;28;102178;-75
2023/08/18 02:41:51;;;;;;;3.83;3.30;;;;;;;18.50;100.00;96395.53;4973532;28;105364;-75
2023/08/18 02:44:20;;;;;;;5.53;3.37;;;;;;;18.74;100.00;96400.72;4991102;28;102246;-75
2023/08/18 02:46:47;;;;;;;3.20;3.00;;;;;;;18.84;100.00;96405.88;4974156;28;105293;-74
2023/08/18 02:49:15;;;;;;;3.40;3.10;;;;;;;18.78;100.00;96407.06;4973269;28;105647;-74
2023/08/18 02:51:42;;;;;;;3.67;3.00;;;;;;;18.63;100.00;96400.09;4974068;28;101816;-74
2023/08/18 02:54:09;;;;;;;3.53;3.23;;;;;;;18.73;100.00;96405.28;4973821;28;105002;-74
2023/08/18 02:56:37;;;;;;;3.73;3.07;;;;;;;18.71;100.00;96401.28;4973450;28;105134;-77
2023/08/18 02:59:04;;;;;;;5.83;3.17;;;;;;;18.66;100.00;96398.72;4973828;28;101903;-74
2023/08/18 03:01:32;;;;;;;3.30;3.00;;;;;;;18.52;100.00;96392.53;4976711;28;105530;-74
2023/08/18 03:04:01;;;;;;;3.30;3.10;;;;;;;18.65;100.00;96391.72;4973637;28;103506;-74
2023/08/18 03:06:29;;;;;;;3.93;3.20;;;;;;;18.53;100.00;96392.22;4973955;28;104139;-74
2023/08/18 03:08:56;;;;;;;3.77;3.03;;;;;;;18.48;100.00;96396.94;4973329;28;104980;-74
2023/08/18 03:11:23;;;;;;;3.33;3.03;;;;;;;18.32;100.00;96390.25;4974021;28;101959;-74
2023/08/18 03:13:51;;;;;;;5.30;3.20;;;;;;;18.34;100.00;96388.84;4973411;28;105494;-74
2023/08/18 03:16:18;;;;;;;3.23;2.97;;;;;;;18.37;100.00;96392.84;4972982;28;105958;-74
2023/08/18 03:18:46;;;;;;;3.20;2.90;;;;;;;18.26;100.00;96396.78;4989959;28;102142;-74
2023/08/18 03:21:13;;;;;;;3.33;2.83;;;;;;;18.18;100.00;96392.09;4973352;28;105258;-74
2023/08/18 03:23:42;;;;;;;4.37;2.90;;;;;;;18.26;100.00;96402.19;4992606;28;105401;-74
2023/08/18 03:26:09;;;;;;;3.17;2.97;;;;;;;18.26;100.00;96405.66;4973518;28;105226;-74
2023/08/18 03:28:37;;;;;;;4.27;3.30;;;;;;;18.13;100.00;96394.88;4972402;28;104465;-74
2023/08/18 03:31:07;;;;;;;3.70;3.40;;;;;;;17.91;100.00;96392.03;4973306;28;101967;-74
2023/08/18 03:33:35;;;;;;;4.40;2.87;;;;;;;18.08;100.00;96403.03;4973597;28;105309;-74
2023/08/18 03:36:04;;;;;;;3.87;3.10;;;;;;;18.14;100.00;96409.94;4972877;28;105496;-74
2023/08/18 03:38:31;;;;;;;3.63;3.10;;;;;;;18.05;100.00;96398.25;4973322;28;102016;-74
2023/08/18 03:41:02;;;;;;;3.43;3.20;;;;;;;18.33;100.00;96410.69;4973189;28;104862;-75
2023/08/18 03:43:30;;;;;;;4.00;3.37;;;;;;;18.42;100.00;96408.91;4989117;28;105209;-75
2023/08/18 03:46:00;;;;;;;4.37;3.27;;;;;;;18.50;100.00;96413.56;4976167;28;103343;-75
2023/08/18 03:48:27;;;;;;;3.97;3.50;;;;;;;18.43;100.00;96413.19;4972705;28;105469;-72
2023/08/18 03:50:57;;;;;;;4.07;3.20;;;;;;;18.23;100.00;96411.66;4973178;28;101929;-76
2023/08/18 03:53:25;;;;;;;3.53;3.23;;;;;;;18.11;100.00;96413.22;4973091;28;105418;-75
2023/08/18 03:55:52;;;;;;;5.43;3.57;;;;;;;17.67;100.00;96408.34;4972178;28;105712;-75
2023/08/18 03:58:20;;;;;;;3.50;3.20;;;;;;;17.54;100.00;96413.69;4973066;28;102155;-75
2023/08/18 04:00:47;;;;;;;3.30;3.00;;;;;;;17.56;100.00;96408.78;4990970;28;102874;-75
2023/08/18 04:03:14;;;;;;;4.37;3.20;;;;;;;17.67;100.00;96419.09;4972262;28;105438;-75
2023/08/18 04:05:46;;;;;;;3.53;3.10;;;;;;;18.12;100.00;96439.03;4976063;28;101915;-73
2023/08/18 04:08:14;;;;;;;4.43;3.43;;;;;;;17.80;100.00;96428.28;4972469;28;105398;-72
2023/08/18 04:10:42;;;;;;;3.40;3.10;;;;;;;17.94;100.00;96434.50;4956778;28;102332;-77
2023/08/18 04:13:09;;;;;;;3.10;2.80;;;;;;;18.09;100.00;96437.72;4989520;28;104414;-78
2023/08/18 04:15:37;;;;;;;3.07;2.77;;;;;;;18.24;100.00;96437.47;4971840;28;104652;-78
2023/08/18 04:18:05;;;;;;;3.90;3.53;;;;;;;18.44;100.00;96455.16;4972547;28;101993;-78
2023/08/18 04:20:32;;;;;;;3.33;3.03;;;;;;;18.15;100.00;96446.53;4972683;28;104800;-77
2023/08/18 04:22:59;;;;;;;3.17;2.60;;;;;;;17.97;100.00;96448.16;4971974;28;105623;-77
2023/08/18 04:25:27;;;;;;;2.93;2.73;;;;;;;17.80;100.00;96447.94;4989014;28;101925;-76
2023/08/18 04:27:53;;;;;;;3.23;2.90;;;;;;;17.68;100.00;96446.78;4975115;28;105069;-76
2023/08/18 04:30:21;;;;;;;3.30;3.00;;;;;;;17.72;100.00;96450.50;4972243;28;102165;-77
2023/08/18 04:32:50;;;;;;;3.03;2.77;;;;;;;17.76;100.00;96454.97;4988922;28;106054;-77
2023/08/18 04:35:17;;;;;;;3.03;2.83;;;;;;;17.89;100.00;96456.94;4971693;28;105505;-72
2023/08/18 04:37:45;;;;;;;3.90;3.13;;;;;;;18.34;100.00;96466.13;4989084;28;102112;-76
2023/08/18 04:40:12;;;;;;;4.83;3.00;;;;;;;18.52;100.00;96466.03;4971258;28;104928;-79
2023/08/18 04:42:39;;;;;;;4.40;3.30;;;;;;;18.72;100.00;96486.41;4971404;28;105948;-78
2023/08/18 04:45:08;;;;;;;3.53;3.20;;;;;;;18.99;100.00;96491.78;4972243;28;102415;-76
2023/08/18 04:47:34;;;;;;;4.60;3.20;;;;;;;19.06;100.00;96484.09;4972403;28;105614;-77
2023/08/18 04:50:04;;;;;;;4.43;3.37;;;;;;;19.17;100.00;96485.47;4975020;28;105646;-77
2023/08/18 04:52:31;;;;;;;3.33;3.03;;;;;;;19.26;100.00;96489.09;4972466;28;104879;-76
2023/08/18 04:54:58;;;;;;;6.43;3.40;;;;;;;19.37;100.00;96485.88;4971779;28;105625;-75
2023/08/18 04:57:25;;;;;;;3.30;3.00;;;;;;;19.51;100.00;96485.84;4988286;28;102302;-74
2023/08/18 04:59:52;;;;;;;4.60;3.10;;;;;;;19.59;100.00;96487.81;4971793;28;105721;-74
2023/08/18 05:02:19;;;;;;;5.60;3.80;;;;;;;19.46;100.00;96483.28;4971485;28;105453;-76
2023/08/18 05:04:46;;;;;;;3.60;3.30;;;;;;;19.46;100.00;96489.44;4972056;28;102051;-77
2023/08/18 05:07:14;;;;;;;5.57;3.30;;;;;;;19.69;100.00;96484.91;4971572;28;104964;-77
2023/08/18 05:09:41;;;;;;;3.87;3.53;;;;;;;19.49;100.00;96474.56;4971173;28;105523;-75
2023/08/18 05:12:08;;;;;;;3.60;3.30;;;;;;;19.52;100.00;96476.66;4975083;28;102124;-76
2023/08/18 05:14:36;;;;;;;4.13;2.90;;;;;;;19.71;100.00;96482.69;4971222;28;105485;-76
2023/08/18 05:17:03;;;;;;;3.77;3.17;;;;;;;19.84;100.00;96479.16;4971636;28;102116;-76
2023/08/18 05:19:30;;;;;;;4.30;3.17;;;;;;;19.82;100.00;96471.34;4972150;28;104891;-75
2023/08/18 05:21:57;;;;;;;4.33;3.50;;;;;;;19.82;100.00;96465.13;4971128;28;104300;-76
2023/08/18 05:24:26;;;;;;;4.43;3.33;;;;;;;20.04;100.00;96474.03;4988356;28;102030;-74
2023/08/18 05:26:53;;;;;;;3.33;3.03;;;;;;;20.21;100.00;96471.47;4972117;28;105804;-75
2023/08/18 05:29:19;;;;;;;3.93;3.53;;;;;;;20.61;100.00;96472.31;4989918;28;102852;-75
2023/08/18 05:31:47;;;;;;;3.40;3.20;;;;;;;20.61;100.00;96466.91;4972243;28;102342;-73
2023/08/18 05:34:13;;;;;;;3.87;3.47;;;;;;;20.59;100.00;96464.53;4991662;28;104934;-76
2023/08/18 05:36:40;;;;;;;2.97;2.77;;;;;;;20.72;100.00;96470.94;4990551;28;101934;-75
2023/08/18 05:39:07;;;;;;;3.00;2.80;;;;;;;20.44;100.00;96466.84;4972302;28;104920;-75
2023/08/18 05:41:36;;;;;;;3.33;3.00;;;;;;;20.15;100.00;96477.31;4971694;28;104245;-76
2023/08/18 05:44:03;;;;;;;3.17;2.53;;;;;;;20.00;100.00;96481.16;4972307;28;102001;-77
2023/08/18 05:46:30;;;;;;;3.57;2.63;;;;;;;19.84;100.00;96484.53;4972652;28;103952;-76
2023/08/18 05:48:57;;;;;;;3.33;2.80;;;;;;;19.87;100.00;96490.13;4971769;28;105632;-77
2023/08/18 05:51:24;;;;;;;3.00;2.80;;;;;;;19.85;100.00;96484.25;4990533;28;102064;-76
2023/08/18 05:53:51;;;;;;;3.20;2.57;;;;;;;20.01;100.00;96490.84;4976006;28;105783;-77
2023/08/18 05:56:18;;;;;;;3.07;2.80;;;;;;;19.82;100.00;96492.13;4978465;28;101818;-77
2023/08/18 05:58:47;;;;;;;3.93;2.60;;;;;;;19.90;100.00;96494.88;4975721;28;103889;-77
2023/08/18 06:01:14;;;;;;;2.67;2.47;;;;;;;19.88;100.00;96507.09;4991559;28;105279;-77
2023/08/18 06:03:41;;;;;;;2.70;2.60;;;;;;;19.90;100.00;96499.50;4975601;28;102002;-78
2023/08/18 06:06:08;;;;;;;3.90;2.80;;;;;;;19.79;100.00;96498.16;4975352;28;105680;-79
2023/08/18 06:08:35;;;;;;;3.23;2.80;;;;;;;19.88;100.00;96505.22;4975138;28;105266;-79
2023/08/18 06:11:02;;;;;;;3.10;2.90;;;;;;;19.99;100.00;96495.75;4975393;28;101897;-77
2023/08/18 06:13:29;;;;;;;2.93;2.63;;;;;;;20.28;100.00;96487.25;4975574;28;104542;-79
2023/08/18 06:15:57;;;;;;;2.90;2.70;;;;;;;20.47;100.00;96487.81;4978610;28;104221;-79
2023/08/18 06:18:24;;;;;;;3.27;2.97;;;;;;;20.51;100.00;96489.63;4975365;28;104409;-80
2023/08/18 06:20:51;;;;;;;3.00;2.80;;;;;;;20.21;100.00;96508.50;4974831;28;105751;-80
2023/08/18 06:23:18;;;;;;;4.87;3.07;;;;;;;20.07;100.00;96510.47;4975192;28;101951;-80
2023/08/18 06:25:45;;;;;;;3.40;3.10;;;;;;;20.13;100.00;96504.63;4975127;28;104854;-80
2023/08/18 06:28:12;;;;;;;3.67;2.67;;;;;;;19.85;100.00;96508.53;4991122;28;105778;-80
2023/08/18 06:30:39;;;;;;;6.10;3.13;;;;;;;19.82;100.00;96508.31;4991632;28;101932;-80
2023/08/18 06:33:08;;;;;;;3.70;3.27;;;;;;;19.93;100.00;96509.69;4975150;28;105389;-80
2023/08/18 06:35:35;;;;;;;4.43;3.03;;;;;;;20.03;100.00;96504.84;4992076;28;102858;-80
2023/08/18 06:38:01;;;;;;;3.43;3.13;;;;;;;19.90;100.00;96513.00;4978426;28;102019;-80
2023/08/18 06:40:28;;;;;;;3.40;3.10;;;;;;;20.20;100.00;96509.59;4990827;28;105234;-80
2023/08/18 06:42:55;;;;;;;3.43;3.13;;;;;;;20.30;100.00;96514.75;4992894;28;101821;-80
2023/08/18 06:45:22;;;;;;;3.87;3.47;;;;;;;20.08;100.00;96506.66;4974811;28;104601;-79
2023/08/18 06:47:49;;;;;;;3.70;3.40;;;;;;;20.22;100.00;96507.41;4990783;28;104818;-81
2023/08/18 06:50:20;;;;;;;3.47;3.17;;;;;;;20.53;100.00;96509.00;4991371;28;102008;-80
2023/08/18 06:52:48;;;;;;;3.63;3.33;;;;;;;20.89;100.00;96496.16;4975028;28;105260;-80
2023/08/18 06:55:15;;;;;;;3.33;3.13;;;;;;;20.80;100.00;96497.19;4990346;28;105993;-81
2023/08/18 07:00:29;;;;;;;3.17;2.90;;;;;;;21.01;100.00;96492.84;5093082;23;103392;-83
2023/08/18 07:02:59;;;;;;;5.43;2.70;;;;;;;21.09;100.00;96487.47;4972838;28;101913;-80
2023/08/18 07:05:35;;;;;;;3.27;2.97;;;;;;;21.50;100.00;96497.91;4955602;28;105632;-81
2023/08/18 07:08:05;;;;;;;5.10;3.03;;;;;;;21.72;100.00;96497.78;4973533;28;105665;-82
2023/08/18 07:10:35;;;;;;;3.63;2.80;;;;;;;21.80;100.00;96488.88;4971241;28;102083;-79
2023/08/18 07:13:08;;;;;;;4.17;2.60;;;;;;;21.95;100.00;96491.91;4959029;28;105628;-80
2023/08/18 07:15:38;;;;;;;3.17;2.57;;;;;;;21.84;100.00;96497.94;4954748;28;105231;-80
2023/08/18 07:18:10;;;;;;;3.03;2.77;;;;;;;21.78;100.00;96502.75;4989503;28;102071;-79
2023/08/18 07:20:43;;;;;;;4.33;2.30;;;;;;;21.93;100.00;96494.13;4989170;28;102641;-81
2023/08/18 07:23:13;;;;;;;2.40;2.20;;;;;;;22.35;100.00;96495.19;4958534;28;103829;-78
2023/08/18 07:25:46;;;;;;;2.87;2.40;;;;;;;22.56;100.00;96491.50;4955712;28;104829;-78
2023/08/18 07:28:12;;;;;;;3.50;2.47;;;;;;;22.77;100.00;96488.91;4962278;28;105532;-81
2023/08/18 07:30:39;;;;;;;3.57;2.43;;;;;;;22.68;100.00;96494.31;4954304;28;101884;-84
2023/08/18 07:33:06;;;;;;;2.80;2.50;;;;;;;22.54;100.00;96492.94;4954869;28;103970;-85
2023/08/18 07:35:34;;;;;;;2.73;2.40;;;;;;;22.98;100.00;96490.53;4953884;28;105476;-82
2023/08/18 07:38:03;;;;;;;2.17;1.97;;;;;;;23.45;100.00;96494.78;4983645;28;102031;-82
2023/08/18 07:40:30;;;;;;;2.10;2.00;;;;;;;23.60;100.00;96494.19;4954562;28;105749;-85
2023/08/18 07:42:58;;;;;;;1.97;1.87;;;;;;;23.99;100.00;96484.81;4957945;28;105710;-88
2023/08/18 07:45:26;;;;;;;1.90;1.80;;;;;;;24.16;100.00;96500.97;4995676;28;102132;-84
2023/08/18 07:48:09;;;;;;;3.60;2.27;;;;;;;24.10;100.00;96491.44;5031164;28;102095;-85
2023/08/18 07:50:36;;;;;;;2.40;2.20;;;;;;;24.32;100.00;96497.31;5025867;28;103176;-85
2023/08/18 07:53:03;;;;;;;4.63;2.30;;;;;;;24.30;100.00;96490.63;5024992;28;102068;-85
2023/08/18 07:55:30;;;;;;;2.03;1.93;;;;;;;23.99;100.00;96490.25;5025552;28;105696;-84
2023/08/18 07:57:59;;;;;;;2.47;2.27;;;;;;;23.94;100.00;96487.75;5026491;28;102869;-84
2023/08/18 08:00:32;;;;;;;2.87;1.90;;;;;;;23.51;100.00;96490.75;5025797;28;102593;-87
2023/08/18 08:03:01;;;;;;;3.17;2.17;;;;;;;23.79;100.00;96480.97;5025849;28;105468;-89
2023/08/18 08:05:46;;;;;;;2.67;1.97;;;;;;;23.54;100.00;96489.31;5026986;28;105830;-96
2023/08/18 08:08:14;;;;;;;2.13;2.03;;;;;;;24.25;100.00;96486.16;5028405;27;102092;-81
2023/08/18 08:10:41;;;;;;;2.23;2.00;;;;;;;24.50;100.00;96497.91;5026680;27;101967;-89
2023/08/18 08:13:08;;;;;;;2.57;2.30;;;;;;;24.06;100.00;96488.59;5025726;28;101978;-82
2023/08/18 08:15:35;;;;;;;2.93;2.20;;;;;;;24.34;100.00;96491.50;5025337;28;105333;-83
2023/08/18 08:18:02;;;;;;;2.23;2.07;;;;;;;23.47;100.00;96489.00;5024785;28;105668;-86
2023/08/18 08:20:29;;;;;;;2.43;1.90;;;;;;;24.61;100.00;96485.50;5025422;28;101972;-87
2023/08/18 08:22:57;;;;;;;1.80;1.70;;;;;;;25.13;100.00;96486.47;5025641;28;104856;-84
2023/08/18 08:25:24;;;;;;;1.80;1.70;;;;;;;24.79;100.00;96481.47;5024705;28;105699;-85
2023/08/18 08:27:52;;;;;;;2.20;2.00;;;;;;;24.90;100.00;96488.06;5025478;28;102083;-84
2023/08/18 08:30:19;;;;;;;1.87;1.70;;;;;;;25.29;100.00;96490.91;5027941;28;105046;-84
2023/08/18 08:32:46;;;;;;;2.50;2.00;;;;;;;25.56;100.00;96490.22;5025262;28;102244;-84
2023/08/18 08:35:13;;;;;;;2.83;1.70;;;;;;;25.86;100.00;96493.44;5025119;28;105332;-88
2023/08/18 08:37:41;;;;;;;1.80;1.70;;;;;;;26.04;100.00;96487.41;5024460;28;104575;-87
2023/08/18 08:40:18;;;;;;;1.80;1.70;;;;;;;25.81;100.00;96489.03;5005120;28;102002;-85
2023/08/18 08:42:45;;;;;;;1.83;1.73;;;;;;;26.22;100.00;96488.69;5038726;27;104917;-85
2023/08/18 08:45:12;;;;;;;3.13;1.87;;;;;;;26.37;100.00;96492.63;5008131;28;105471;-86
2023/08/18 08:47:43;;;;;;;1.80;1.70;;;;;;;26.41;100.00;96493.47;5024503;28;102001;-84
2023/08/18 08:50:12;;;;;;;2.87;1.80;;;;;;;26.36;100.00;96491.81;5025056;28;106353;-85
2023/08/18 08:52:40;;;;;;;2.10;1.90;;;;;;;26.41;100.00;96488.03;5027665;28;105446;-85
2023/08/18 08:55:09;;;;;;;1.90;1.80;;;;;;;26.03;100.00;96493.19;5026316;28;102858;-85
2023/08/18 08:57:36;;;;;;;2.00;1.80;;;;;;;25.88;100.00;96491.19;5017528;28;105303;-85
2023/08/18 09:00:04;;;;;;;2.03;1.90;;;;;;;26.09;100.00;96480.91;5012855;28;101792;-88
2023/08/18 09:02:31;;;;;;;2.63;2.03;;;;;;;26.44;100.00;96487.34;5010936;28;105529;-84
2023/08/18 09:05:00;;;;;;;2.37;1.83;;;;;;;26.34;100.00;96485.13;5011243;28;105234;-90
2023/08/18 09:07:28;;;;;;;3.03;2.20;;;;;;;25.82;100.00;96493.34;5012574;28;101995;-90
2023/08/18 09:09:55;;;;;;;2.60;2.20;;;;;;;26.12;100.00;96485.66;5004189;28;102623;-82
2023/08/18 09:12:29;;;;;;;2.77;1.90;;;;;;;26.79;100.00;96486.38;5011102;28;105519;-89
2023/08/18 09:14:56;;;;;;;2.10;2.00;;;;;;;27.14;100.00;96492.69;5014317;28;101966;-88
2023/08/18 09:17:23;;;;;;;5.03;2.10;;;;;;;27.46;100.00;96491.56;5010694;28;105261;-87
2023/08/18 09:19:51;;;;;;;1.90;1.80;;;;;;;27.67;100.00;96497.50;5013015;28;101809;-90
2023/08/18 09:22:22;;;;;;;2.27;1.90;;;;;;;27.41;100.00;96491.03;5011294;28;103620;-87
2023/08/18 09:24:51;;;;;;;2.00;1.80;;;;;;;27.98;100.00;96485.69;5010436;28;105559;-86
2023/08/18 09:27:20;;;;;;;2.00;1.90;;;;;;;28.13;100.00;96487.59;5011126;28;101899;-85
2023/08/18 09:29:48;;;;;;;2.13;1.93;;;;;;;28.17;100.00;96489.22;5010987;28;103634;-88
2023/08/18 09:32:15;;;;;;;2.83;1.90;;;;;;;28.54;100.00;96486.84;5010684;28;104744;-88
2023/08/18 09:34:44;;;;;;;4.40;2.60;;;;;;;28.35;100.00;96489.59;5011277;28;102030;-88
2023/08/18 09:37:11;;;;;;;3.15;1.80;;;;;;;28.41;100.00;96483.50;5014391;28;105764;-89
2023/08/18 09:39:38;;;;;;;2.20;2.00;;;;;;;28.22;100.00;96479.97;5010918;28;101938;-89
2023/08/18 09:42:07;;;;;;;5.00;3.15;;;;;;;28.22;100.00;96475.25;5011205;28;105041;-90
2023/08/18 09:44:34;;;;;;;5.07;3.10;;;;;;;28.42;100.00;96479.59;5010303;28;105121;-85
2023/08/18 09:47:05;;;;;;;2.05;1.95;;;;;;;28.57;100.00;96480.66;5010206;28;102071;-90
2023/08/18 09:49:36;;;;;;;2.40;2.20;;;;;;;28.82;100.00;96473.69;4991322;28;105119;-88
2023/08/18 09:52:05;;;;;;;2.42;1.80;;;;;;;29.10;100.00;96471.47;5023903;28;105604;-88
2023/08/18 09:54:36;;;;;;;1.90;1.80;;;;;;;28.96;100.00;96465.72;4999251;28;101865;-91
2023/08/18 09:57:08;;;;;;;2.67;2.30;;;;;;;29.05;100.00;96460.81;5010542;28;105179;-85
2023/08/18 09:59:42;;;;;;;2.38;2.15;;;;;;;28.07;100.00;96465.19;5013424;28;101943;-87
2023/08/18 10:02:15;;;;;;;2.40;2.20;;;;;;;28.30;100.00;96459.78;5012153;28;102118;-84
2023/08/18 10:04:43;;;;;;;2.33;1.92;;;;;;;28.52;100.00;96453.59;5009768;28;105348;-83
2023/08/18 10:07:12;;;;;;;3.17;2.38;;;;;;;27.37;100.00;96462.84;5009510;28;102041;-80
2023/08/18 10:09:42;;;;;;;2.05;1.90;;;;;;;27.56;100.00;96454.69;5008662;28;105852;-79
2023/08/18 10:12:11;;;;;;;2.33;2.00;;;;;;;28.48;100.00;96456.28;5009111;28;105642;-79
2023/08/18 10:14:39;;;;;;;2.58;2.22;;;;;;;28.07;100.00;96458.94;5009827;28;101911;-79
2023/08/18 10:17:06;;;;;;;2.65;1.80;;;;;;;28.76;100.00;96456.78;5009758;28;105100;-79
2023/08/18 10:19:49;;;;;;;2.22;2.00;;;;;;;29.05;100.00;96452.59;5012382;28;105460;-79
2023/08/18 10:22:17;;;;;;;2.42;2.08;;;;;;;29.30;100.00;96461.97;5009676;28;105015;-80
2023/08/18 10:24:48;;;;;;;2.03;1.92;;;;;;;28.36;100.00;96458.34;5009496;28;105511;-81
2023/08/18 10:27:30;;;;;;;1.85;1.75;;;;;;;28.32;100.00;96454.72;5009544;28;102126;-80
2023/08/18 10:29:57;;;;;;;1.92;1.58;;;;;;;28.98;100.00;96452.50;5043450;27;105277;-80
2023/08/18 10:32:24;;;;;;;2.08;1.73;;;;;;;29.82;100.00;96453.78;5042830;27;105471;-80
2023/08/18 10:34:53;;;;;;;1.77;1.50;;;;;;;30.06;99.91;96456.03;5009524;28;102040;-80
2023/08/18 10:37:22;;;;;;;1.60;1.50;;;;;;;30.43;96.66;96454.94;5009269;28;105479;-80
2023/08/18 10:39:51;;;;;;;1.38;1.38;;;;;;;30.49;90.46;96453.44;5008801;28;105683;-80
2023/08/18 10:42:18;;;;;;;1.45;1.35;;;;;;;30.12;86.54;96452.63;5013062;28;101937;-80
2023/08/18 10:44:58;;;;;;;1.63;1.52;;;;;;;30.56;80.22;96452.75;5008793;28;105277;-80
2023/08/18 10:47:32;;;;;;;1.60;1.50;;;;;;;29.75;89.21;96443.50;5010143;28;101878;-80
2023/08/18 10:50:04;;;;;;;2.28;1.50;;;;;;;29.93;90.85;96443.72;5010535;28;102535;-80
2023/08/18 10:52:32;;;;;;;1.60;1.50;;;;;;;29.81;98.11;96447.50;5008750;28;105191;-80
2023/08/18 10:55:00;;;;;;;1.80;1.70;;;;;;;29.94;96.56;96446.09;5009157;28;102000;-80
2023/08/18 10:57:27;;;;;;;1.75;1.60;;;;;;;30.06;100.00;96439.56;5009276;28;105432;-80
2023/08/18 10:59:54;;;;;;;2.53;1.80;;;;;;;30.35;100.00;96444.28;5008615;28;104961;-80
2023/08/18 11:02:21;;;;;;;1.70;1.60;;;;;;;30.80;97.64;96443.97;5010617;28;102026;-80
2023/08/18 11:04:48;;;;;;;4.70;1.65;;;;;;;31.08;98.50;96446.97;5011689;28;105187;-80
2023/08/18 11:07:16;;;;;;;1.80;1.70;;;;;;;31.19;99.36;96445.91;5008478;28;101926;-80
2023/08/18 11:09:43;;;;;;;2.35;1.67;;;;;;;30.53;99.71;96443.31;5008933;28;105503;-80
2023/08/18 11:12:10;;;;;;;1.83;1.73;;;;;;;30.69;100.00;96443.88;5008405;28;104616;-80
2023/08/18 11:14:37;;;;;;;1.55;1.50;;;;;;;30.98;100.00;96433.91;5009120;28;101945;-80
2023/08/18 11:17:04;;;;;;;2.60;1.60;;;;;;;30.80;100.00;96438.47;5008894;28;105394;-80
2023/08/18 11:19:31;;;;;;;1.58;1.48;;;;;;;30.56;100.00;96436.28;5007979;28;105267;-80
2023/08/18 11:21:58;;;;;;;1.60;1.50;;;;;;;30.69;100.00;96429.34;5008591;28;102081;-80
2023/08/18 11:24:27;;;;;;;2.00;1.90;;;;;;;30.91;100.00;96429.19;5008563;28;105812;-80